Main page
METAR-TAF:

METAR-TAF

Airports :

Arthur N. Neu Airport

Carroll, Iowa, United States

latitude: 42-03N, longitude: 094-47W, elevation: 1230 ft

Current weather observation

The report was made 26 minutes ago, at 14:55 UTC
Wind 12 mph from the South with gusts up to 17 mph
Temperature 46°F
Humidity 66%
Pressure 29.92 in. Hg
Visibility: 10 miles
Scattered clouds at a height of 7000 ft
Scattered clouds at a height of 8500 ft

METAR: KCIN 211455Z AUTO 17010G15KT 10SM SCT070 SCT085 08/02 A2992 RMK AO2

Time: 10:21 (15:21 UTC)


TAF: missing

Weather observations and forecasts of more than 4000 airports (METAR and TAF reports).

The available stations are represented by yellow and red dots on the map.

Hover mouse over dot to see the name of the station.

Then click to see weather observations and forecasts.

To change the map : click on the green buttons with a black cross to zoom in, on the green button with a dash to zoom out, or on the green arrows for adjacent maps.


METAR-TAF: